createdAt,value
2022-10-18T00:00:03.589Z,21.38
2022-10-18T00:02:30.761Z,20.92
2022-10-18T00:04:57.822Z,24.85
2022-10-18T00:07:24.366Z,23.38
2022-10-18T00:09:51.583Z,27.67
2022-10-18T00:12:18.198Z,25.65
2022-10-18T00:14:44.741Z,21.55
2022-10-18T00:17:11.837Z,24.60
2022-10-18T00:19:38.363Z,27.33
2022-10-18T00:22:05.230Z,24.23
2022-10-18T00:24:31.971Z,24.95
2022-10-18T00:26:58.969Z,23.75
2022-10-18T00:29:25.569Z,26.67
2022-10-18T00:31:52.383Z,26.15
2022-10-18T00:34:19.397Z,24.08
2022-10-18T00:36:46.154Z,26.00
2022-10-18T00:39:20.168Z,28.45
2022-10-18T00:41:47.872Z,25.80
2022-10-18T00:44:14.569Z,22.13
2022-10-18T00:46:47.059Z,24.08
2022-10-18T00:49:16.163Z,25.75
2022-10-18T00:51:46.991Z,23.48
2022-10-18T00:54:15.081Z,25.13
2022-10-18T00:56:41.899Z,26.83
2022-10-18T00:59:08.802Z,30.77
2022-10-18T01:01:35.390Z,32.08
2022-10-18T01:04:02.808Z,30.02
2022-10-18T01:06:30.037Z,32.50
2022-10-18T01:09:19.311Z,25.92
2022-10-18T01:11:53.258Z,31.42
2022-10-18T01:14:34.762Z,29.10
2022-10-18T01:17:08.657Z,26.63
2022-10-18T01:20:05.853Z,26.23
2022-10-18T01:22:32.632Z,28.17
2022-10-18T01:25:06.773Z,27.38
2022-10-18T01:27:36.089Z,27.67
2022-10-18T01:30:30.056Z,30.25
2022-10-18T01:33:26.741Z,32.60
2022-10-18T01:36:25.820Z,26.10
2022-10-18T01:38:56.630Z,34.20
2022-10-18T01:41:25.679Z,29.60
2022-10-18T01:43:57.753Z,32.05
2022-10-18T01:46:26.444Z,36.35
2022-10-18T01:48:54.595Z,32.10
2022-10-18T01:51:30.398Z,30.33
2022-10-18T01:53:57.901Z,31.70
2022-10-18T01:56:28.804Z,28.02
2022-10-18T01:59:33.124Z,30.80
2022-10-18T02:02:06.892Z,24.83
2022-10-18T02:05:07.675Z,32.47
2022-10-18T02:07:42.695Z,29.65
2022-10-18T02:10:22.643Z,30.50
2022-10-18T02:12:53.082Z,32.42
2022-10-18T02:15:33.329Z,30.65
2022-10-18T02:18:03.473Z,31.92
2022-10-18T02:20:32.418Z,33.97
2022-10-18T02:23:01.438Z,32.67
2022-10-18T02:25:30.856Z,36.38
2022-10-18T02:27:58.005Z,40.13
2022-10-18T02:30:30.542Z,35.30
2022-10-18T02:33:04.127Z,38.63
2022-10-18T02:35:44.835Z,34.13
2022-10-18T02:38:14.190Z,36.95
2022-10-18T02:40:40.856Z,34.30
2022-10-18T02:43:07.449Z,36.95
2022-10-18T02:45:34.361Z,31.20
2022-10-18T02:48:01.014Z,37.60
2022-10-18T02:50:28.003Z,31.75
2022-10-18T02:52:54.516Z,33.88
2022-10-18T02:55:21.176Z,31.58
2022-10-18T02:57:47.829Z,31.48
2022-10-18T03:00:15.012Z,29.67
2022-10-18T03:02:41.545Z,33.97
2022-10-18T03:05:08.687Z,32.25
2022-10-18T03:07:35.427Z,31.58
2022-10-18T03:10:02.272Z,31.88
2022-10-18T03:12:29.029Z,31.73
2022-10-18T03:14:55.565Z,29.42
2022-10-18T03:17:22.598Z,29.88
2022-10-18T03:19:49.221Z,27.40
2022-10-18T03:22:16.230Z,31.52
2022-10-18T03:24:42.944Z,32.00
2022-10-18T03:27:09.542Z,30.08
2022-10-18T03:29:36.710Z,35.40
2022-10-18T03:32:03.967Z,34.03
2022-10-18T03:34:30.504Z,34.92
2022-10-18T03:37:00.956Z,31.33
2022-10-18T03:39:30.034Z,33.58
2022-10-18T03:41:56.580Z,36.63
2022-10-18T03:44:23.118Z,34.47
2022-10-18T03:46:49.896Z,38.50
2022-10-18T03:49:16.734Z,37.63
2022-10-18T03:51:43.516Z,33.75
2022-10-18T03:54:10.162Z,40.75
2022-10-18T03:56:36.722Z,37.50
2022-10-18T03:59:04.535Z,38.97
2022-10-18T04:01:31.528Z,36.40
2022-10-18T04:03:58.119Z,34.85
2022-10-18T04:06:24.697Z,41.33
2022-10-18T04:08:51.232Z,41.15
2022-10-18T04:11:17.857Z,38.92
2022-10-18T04:13:44.388Z,33.72
2022-10-18T04:16:11.057Z,38.00
2022-10-18T04:18:37.920Z,37.85
2022-10-18T04:21:04.560Z,33.63
2022-10-18T04:23:32.801Z,32.88
2022-10-18T04:26:03.213Z,36.17
2022-10-18T04:28:29.835Z,34.38
2022-10-18T04:30:56.700Z,40.70
2022-10-18T04:33:23.514Z,33.63
2022-10-18T04:35:52.659Z,33.83
2022-10-18T04:38:20.415Z,31.27
2022-10-18T04:40:46.993Z,34.45
2022-10-18T04:43:13.857Z,34.92
2022-10-18T04:45:40.520Z,32.30
2022-10-18T04:48:07.120Z,40.92
2022-10-18T04:50:33.643Z,34.30
2022-10-18T04:53:00.441Z,33.90
2022-10-18T04:55:26.977Z,37.90
2022-10-18T04:57:53.691Z,34.00
2022-10-18T05:00:20.461Z,37.67
2022-10-18T05:02:47.235Z,41.58
2022-10-18T05:05:14.297Z,33.72
2022-10-18T05:07:41.721Z,36.03
2022-10-18T05:10:08.803Z,32.03
2022-10-18T05:12:35.590Z,35.05
2022-10-18T05:15:02.261Z,35.88
2022-10-18T05:17:29.374Z,38.42
2022-10-18T05:19:56.006Z,38.72
2022-10-18T05:22:22.556Z,40.05
2022-10-18T05:24:49.068Z,38.42
2022-10-18T05:27:15.644Z,39.80
2022-10-18T05:29:42.277Z,41.00
2022-10-18T05:32:08.891Z,37.55
2022-10-18T05:34:36.721Z,46.10
2022-10-18T05:37:03.402Z,34.85
2022-10-18T05:39:29.936Z,31.50
2022-10-18T05:41:58.150Z,34.75
2022-10-18T05:44:24.655Z,33.85
2022-10-18T05:46:51.207Z,34.67
2022-10-18T05:49:17.980Z,33.70
2022-10-18T05:51:44.662Z,31.08
2022-10-18T05:54:14.619Z,32.10
2022-10-18T05:56:41.813Z,32.30
2022-10-18T05:59:12.251Z,35.10
2022-10-18T06:01:40.609Z,33.90
2022-10-18T06:04:08.095Z,34.10
2022-10-18T06:06:34.716Z,36.75
2022-10-18T06:09:03.302Z,36.58
2022-10-18T06:11:30.909Z,36.50
2022-10-18T06:14:00.299Z,37.28
2022-10-18T06:16:32.233Z,38.08
2022-10-18T06:19:00.083Z,34.72
2022-10-18T06:21:27.718Z,32.58
2022-10-18T06:23:59.440Z,33.53
2022-10-18T06:26:27.745Z,35.75
2022-10-18T06:28:54.371Z,36.95
2022-10-18T06:31:21.368Z,38.53
2022-10-18T06:33:48.064Z,35.72
2022-10-18T06:36:17.365Z,40.13
2022-10-18T06:38:45.009Z,44.47
2022-10-18T06:41:11.688Z,39.15
2022-10-18T06:43:38.404Z,41.63
2022-10-18T06:46:07.819Z,39.85
2022-10-18T06:48:37.012Z,65.88
2022-10-18T06:51:05.763Z,39.17
2022-10-18T06:53:35.241Z,38.47
2022-10-18T06:56:07.215Z,38.85
2022-10-18T06:58:35.269Z,36.58
2022-10-18T07:01:16.153Z,31.35
2022-10-18T07:03:43.905Z,34.30
2022-10-18T07:06:12.853Z,33.22
2022-10-18T07:08:40.505Z,36.67
2022-10-18T07:11:08.057Z,35.95
2022-10-18T07:13:34.765Z,37.78
2022-10-18T07:16:04.504Z,38.17
2022-10-18T07:18:33.192Z,33.38
2022-10-18T07:21:05.255Z,36.38
2022-10-18T07:23:37.047Z,38.92
2022-10-18T07:26:11.591Z,38.30
2022-10-18T07:28:38.466Z,39.63
2022-10-18T07:31:06.491Z,37.22
2022-10-18T07:33:33.849Z,37.17
2022-10-18T07:36:05.361Z,38.83
2022-10-18T07:38:32.343Z,34.95
2022-10-18T07:41:04.575Z,34.05
2022-10-18T07:43:31.228Z,33.35
2022-10-18T07:46:00.494Z,35.33
2022-10-18T07:48:27.483Z,28.63
2022-10-18T07:50:54.599Z,33.00
2022-10-18T07:53:21.188Z,33.88
2022-10-18T07:55:47.775Z,33.53
2022-10-18T07:58:14.310Z,29.60
2022-10-18T08:00:40.962Z,30.58
2022-10-18T08:03:07.570Z,30.23
2022-10-18T08:05:34.278Z,30.27
2022-10-18T08:08:04.227Z,35.88
2022-10-18T08:10:36.263Z,29.60
2022-10-18T08:13:02.805Z,32.80
2022-10-18T08:15:29.333Z,35.15
2022-10-18T08:17:55.824Z,32.83
2022-10-18T08:20:31.201Z,28.73
2022-10-18T08:23:00.445Z,28.85
2022-10-18T08:25:28.793Z,31.15
2022-10-18T08:27:55.358Z,30.35
2022-10-18T08:30:23.434Z,26.33
2022-10-18T08:32:50.052Z,28.05
2022-10-18T08:35:16.787Z,23.95
2022-10-18T08:37:45.281Z,29.23
2022-10-18T08:40:15.841Z,25.77
2022-10-18T08:43:03.528Z,26.65
2022-10-18T08:45:42.465Z,25.70
2022-10-18T08:48:39.753Z,27.52
2022-10-18T08:51:22.801Z,25.50
2022-10-18T08:54:01.965Z,23.83
2022-10-18T08:56:28.514Z,28.42
2022-10-18T08:58:55.321Z,31.55
2022-10-18T09:01:34.141Z,30.33
2022-10-18T09:04:15.336Z,28.92
2022-10-18T09:07:02.032Z,31.75
2022-10-18T09:10:00.849Z,35.33
2022-10-18T09:12:36.286Z,36.17
2022-10-18T09:15:27.726Z,29.35
2022-10-18T09:18:03.387Z,33.42
2022-10-18T09:20:57.595Z,30.27
2022-10-18T09:23:45.895Z,27.10
2022-10-18T09:26:21.200Z,29.98
2022-10-18T09:29:10.800Z,30.95
2022-10-18T09:32:04.879Z,32.17
2022-10-18T09:34:50.897Z,28.42
2022-10-18T09:37:20.902Z,29.63
2022-10-18T09:39:50.529Z,30.33
2022-10-18T09:42:30.695Z,27.02
2022-10-18T09:45:14.092Z,27.42
2022-10-18T09:47:47.829Z,23.42
2022-10-18T09:50:29.649Z,28.50
2022-10-18T09:53:12.248Z,24.60
2022-10-18T09:56:02.385Z,24.98
2022-10-18T09:58:44.614Z,23.35
2022-10-18T10:01:15.667Z,22.02
2022-10-18T10:03:42.693Z,23.17
2022-10-18T10:06:12.312Z,23.67
2022-10-18T10:08:44.482Z,24.75
2022-10-18T10:11:50.732Z,26.37
2022-10-18T10:14:25.945Z,25.65
2022-10-18T10:17:20.775Z,17.00
2022-10-18T10:19:59.129Z,16.27
2022-10-18T10:22:39.188Z,17.35
2022-10-18T10:25:07.286Z,17.17
2022-10-18T10:27:43.372Z,15.25
2022-10-18T10:30:28.574Z,16.15
2022-10-18T10:32:56.629Z,18.30
2022-10-18T10:38:27.395Z,14.68
2022-10-18T10:40:54.706Z,13.70
2022-10-18T10:43:39.137Z,11.82
2022-10-18T10:46:20.598Z,10.30
2022-10-18T10:49:04.467Z,11.25
2022-10-18T10:51:41.173Z,13.52
2022-10-18T10:54:17.896Z,16.58
2022-10-18T10:57:05.409Z,9.45
2022-10-18T10:59:51.522Z,10.40
2022-10-18T11:02:28.771Z,11.38
2022-10-18T11:04:57.294Z,8.35
2022-10-18T11:07:44.222Z,11.85
2022-10-18T11:10:10.741Z,9.93
2022-10-18T11:12:43.284Z,8.55
2022-10-18T11:15:16.056Z,8.70
2022-10-18T11:17:46.393Z,8.75
2022-10-18T11:20:13.066Z,9.05
2022-10-18T11:22:51.895Z,9.23
2022-10-18T11:25:22.073Z,9.90
2022-10-18T11:27:57.588Z,9.80
2022-10-18T11:30:48.989Z,6.45
2022-10-18T11:34:03.506Z,8.48
2022-10-18T11:36:55.015Z,7.10
2022-10-18T11:39:45.641Z,8.27
2022-10-18T11:42:23.996Z,7.75
2022-10-18T11:45:12.046Z,7.35
2022-10-18T11:47:55.724Z,5.20
2022-10-18T11:50:49.838Z,5.60
2022-10-18T11:53:28.376Z,5.85
2022-10-18T11:56:25.890Z,6.32
2022-10-18T11:59:11.897Z,7.85
2022-10-18T12:01:49.792Z,4.07
2022-10-18T12:04:20.264Z,4.97
2022-10-18T12:06:50.523Z,5.07
2022-10-18T12:09:44.181Z,3.47
2022-10-18T12:12:23.779Z,4.45
2022-10-18T12:15:07.229Z,5.50
2022-10-18T12:17:46.187Z,3.88
2022-10-18T12:20:27.888Z,7.47
2022-10-18T12:23:02.915Z,6.10
2022-10-18T12:25:32.769Z,5.47
2022-10-18T12:28:20.668Z,4.25
2022-10-18T12:31:05.518Z,6.65
2022-10-18T12:33:39.523Z,4.00
2022-10-18T12:36:29.381Z,4.30
2022-10-18T12:39:00.471Z,5.18
2022-10-18T12:41:30.054Z,3.30
2022-10-18T12:44:03.690Z,4.50
2022-10-18T12:46:59.511Z,3.83
2022-10-18T12:49:40.154Z,5.50
2022-10-18T12:52:26.711Z,1.80
2022-10-18T12:55:15.179Z,4.93
2022-10-18T12:57:52.725Z,4.15
2022-10-18T13:00:31.708Z,6.68
2022-10-18T13:03:10.724Z,5.35
2022-10-18T13:05:53.884Z,4.05
2022-10-18T13:08:38.124Z,5.80
2022-10-18T13:11:10.629Z,3.65
2022-10-18T13:13:50.674Z,5.35
2022-10-18T13:16:23.496Z,3.92
2022-10-18T13:21:50.437Z,3.47
2022-10-18T13:24:39.556Z,4.05
2022-10-18T13:27:36.312Z,2.78
2022-10-18T13:30:24.718Z,2.78
2022-10-18T13:33:17.107Z,3.38
2022-10-18T13:36:05.449Z,6.37
2022-10-18T13:38:38.285Z,3.78
2022-10-18T13:43:53.336Z,4.40
2022-10-18T13:46:20.898Z,4.13
2022-10-18T13:49:10.093Z,3.15
2022-10-18T13:51:51.935Z,2.83
2022-10-18T13:54:36.961Z,2.58
2022-10-18T13:57:29.804Z,5.13
2022-10-18T14:00:16.757Z,2.80
2022-10-18T14:03:01.993Z,2.85
2022-10-18T14:05:51.896Z,3.65
2022-10-18T14:11:24.956Z,1.52
2022-10-18T14:13:54.963Z,4.95
2022-10-18T14:16:27.880Z,2.72
2022-10-18T14:19:01.720Z,2.70
2022-10-18T14:21:37.749Z,2.95
2022-10-18T14:24:17.782Z,6.38
2022-10-18T14:26:44.359Z,2.53
2022-10-18T14:29:19.501Z,2.40
2022-10-18T14:31:53.630Z,2.22
2022-10-18T14:34:21.717Z,3.95
2022-10-18T14:36:49.717Z,3.15
2022-10-18T14:39:28.145Z,3.42
2022-10-18T14:41:56.603Z,3.25
2022-10-18T14:44:27.482Z,6.25
2022-10-18T14:47:16.396Z,1.73
2022-10-18T14:49:44.726Z,6.75
2022-10-18T14:52:15.577Z,3.00
2022-10-18T14:54:42.793Z,3.67
2022-10-18T14:57:18.004Z,2.83
2022-10-18T14:59:51.865Z,7.60
2022-10-18T15:02:24.278Z,4.68
2022-10-18T15:05:16.497Z,8.50
2022-10-18T15:07:44.220Z,6.57
2022-10-18T15:10:17.184Z,4.45
2022-10-18T15:13:08.231Z,3.30
2022-10-18T15:15:34.722Z,4.13
2022-10-18T15:18:02.256Z,4.70
2022-10-18T15:20:31.912Z,3.40
2022-10-18T15:23:23.298Z,5.15
2022-10-18T15:25:51.739Z,5.75
2022-10-18T15:28:39.437Z,4.80
2022-10-18T15:31:06.921Z,6.10
2022-10-18T15:33:36.324Z,5.38
2022-10-18T15:36:11.867Z,4.45
2022-10-18T15:38:38.919Z,8.85
2022-10-18T15:41:50.939Z,5.18
2022-10-18T15:44:32.051Z,6.07
2022-10-18T15:47:13.919Z,5.72
2022-10-18T15:49:46.392Z,4.78
2022-10-18T15:52:21.757Z,4.45
2022-10-18T15:57:20.377Z,3.10
2022-10-18T16:00:07.996Z,8.63
2022-10-18T16:02:34.528Z,6.15
2022-10-18T16:05:03.027Z,5.03
2022-10-18T16:07:29.936Z,8.90
2022-10-18T16:09:56.806Z,9.02
2022-10-18T16:12:23.354Z,8.80
2022-10-18T16:14:49.917Z,2.80
2022-10-18T16:17:17.428Z,7.43
2022-10-18T16:19:44.748Z,3.90
2022-10-18T16:24:40.734Z,12.68
2022-10-18T16:27:07.450Z,6.32
2022-10-18T16:29:34.566Z,3.47
2022-10-18T16:32:01.294Z,3.42
2022-10-18T16:34:28.057Z,8.07
2022-10-18T16:36:55.148Z,7.25
2022-10-18T16:39:22.382Z,4.15
2022-10-18T16:41:49.280Z,6.25
2022-10-18T16:44:17.185Z,4.68
2022-10-18T16:46:44.262Z,10.68
2022-10-18T16:49:23.994Z,7.38
2022-10-18T16:51:54.893Z,3.78
2022-10-18T16:54:22.154Z,8.43
2022-10-18T16:56:50.266Z,11.40
2022-10-18T16:59:25.773Z,5.38
2022-10-18T17:01:52.345Z,8.45
2022-10-18T17:04:18.936Z,5.47
2022-10-18T17:06:45.663Z,4.80
2022-10-18T17:09:15.001Z,11.10
2022-10-18T17:11:42.857Z,7.40
2022-10-18T17:14:09.397Z,3.33
2022-10-18T17:16:38.908Z,10.02
2022-10-18T17:19:08.180Z,3.13
2022-10-18T17:21:35.306Z,3.17
2022-10-18T17:24:03.288Z,6.47
2022-10-18T17:26:30.693Z,13.63
2022-10-18T17:29:01.118Z,4.38
2022-10-18T17:31:29.089Z,8.75
2022-10-18T17:33:55.879Z,6.32
2022-10-18T17:36:22.958Z,10.15
2022-10-18T17:38:53.882Z,6.30
2022-10-18T17:41:21.082Z,11.07
2022-10-18T17:43:48.672Z,7.47
2022-10-18T17:46:16.103Z,5.72
2022-10-18T17:48:43.209Z,9.35
2022-10-18T17:51:11.529Z,9.80
2022-10-18T17:53:38.412Z,7.70
2022-10-18T17:56:07.396Z,7.95
2022-10-18T17:58:34.222Z,7.20
2022-10-18T18:01:19.108Z,9.07
2022-10-18T18:03:47.807Z,8.98
2022-10-18T18:06:20.865Z,4.90
2022-10-18T18:11:15.226Z,7.93
2022-10-18T18:13:41.862Z,5.78
2022-10-18T18:16:14.608Z,7.38
2022-10-18T18:18:41.594Z,7.40
2022-10-18T18:21:08.204Z,6.97
2022-10-18T18:23:34.743Z,6.45
2022-10-18T18:26:01.332Z,6.97
2022-10-18T18:28:27.953Z,7.53
2022-10-18T18:30:54.580Z,6.70
2022-10-18T18:33:21.194Z,4.10
2022-10-18T18:35:55.774Z,5.43
2022-10-18T18:38:22.282Z,5.38
2022-10-18T18:40:48.927Z,6.72
2022-10-18T18:43:23.516Z,5.47
2022-10-18T18:45:51.996Z,6.65
2022-10-18T18:48:19.893Z,6.68
2022-10-18T18:50:51.856Z,5.72
2022-10-18T18:53:19.227Z,7.20
2022-10-18T18:55:45.963Z,6.40
2022-10-18T18:58:12.641Z,4.57
2022-10-18T19:00:43.531Z,5.85
2022-10-18T19:03:12.150Z,4.40
2022-10-18T19:05:38.940Z,4.90
2022-10-18T19:08:05.983Z,10.85
2022-10-18T19:10:32.618Z,6.78
2022-10-18T19:12:59.332Z,7.30
2022-10-18T19:15:26.159Z,6.80
2022-10-18T19:17:52.708Z,14.68
2022-10-18T19:20:19.629Z,10.30
2022-10-18T19:22:46.473Z,8.18
2022-10-18T19:25:13.539Z,7.65
2022-10-18T19:27:40.254Z,5.75
2022-10-18T19:30:10.964Z,8.68
2022-10-18T19:32:37.499Z,10.05
2022-10-18T19:35:04.928Z,4.63
2022-10-18T19:37:31.782Z,9.13
2022-10-18T19:39:59.530Z,9.23
2022-10-18T19:42:28.963Z,12.98
2022-10-18T19:44:57.799Z,7.05
2022-10-18T19:47:24.549Z,10.65
2022-10-18T19:49:52.790Z,7.00
2022-10-18T19:52:19.471Z,7.75
2022-10-18T19:54:48.774Z,6.63
2022-10-18T19:57:15.827Z,8.30
2022-10-18T19:59:42.492Z,7.90
2022-10-18T20:02:14.157Z,16.23
2022-10-18T20:04:40.791Z,8.00
2022-10-18T20:07:07.321Z,10.48
2022-10-18T20:09:34.169Z,5.68
2022-10-18T20:12:00.746Z,8.25
2022-10-18T20:14:27.265Z,6.95
2022-10-18T20:16:53.994Z,10.30
2022-10-18T20:19:20.526Z,5.55
2022-10-18T20:21:47.399Z,6.80
2022-10-18T20:24:13.964Z,5.10
2022-10-18T20:26:40.671Z,9.68
2022-10-18T20:29:08.082Z,8.25
2022-10-18T20:31:38.400Z,9.43
2022-10-18T20:34:07.773Z,5.82
2022-10-18T20:36:34.953Z,8.10
2022-10-18T20:39:02.368Z,9.77
2022-10-18T20:41:32.140Z,9.55
2022-10-18T20:44:01.293Z,5.07
2022-10-18T20:46:31.352Z,8.18
2022-10-18T20:48:58.251Z,14.48
2022-10-18T20:51:24.892Z,12.32
2022-10-18T20:53:53.611Z,9.20
2022-10-18T20:56:23.143Z,6.25
2022-10-18T20:58:51.825Z,8.27
2022-10-18T21:01:21.925Z,7.20
2022-10-18T21:03:50.979Z,8.23
2022-10-18T21:06:23.718Z,6.65
2022-10-18T21:08:55.994Z,6.80
2022-10-18T21:11:23.166Z,5.37
2022-10-18T21:13:51.503Z,15.30
2022-10-18T21:16:18.287Z,12.40
2022-10-18T21:18:45.110Z,5.35
2022-10-18T21:23:46.047Z,12.63
2022-10-18T21:26:18.876Z,10.88
2022-10-18T21:28:46.246Z,8.63
2022-10-18T21:31:16.157Z,4.57
2022-10-18T21:33:44.490Z,7.93
2022-10-18T21:36:11.758Z,7.70
2022-10-18T21:38:38.868Z,12.52
2022-10-18T21:41:10.595Z,9.13
2022-10-18T21:43:41.280Z,9.60
2022-10-18T21:46:10.137Z,9.75
2022-10-18T21:48:37.798Z,8.30
2022-10-18T21:51:06.696Z,13.75
2022-10-18T21:53:33.504Z,11.48
2022-10-18T21:56:11.655Z,6.95
2022-10-18T21:58:39.014Z,8.15
2022-10-18T22:01:13.790Z,7.72
2022-10-18T22:03:40.743Z,5.63
2022-10-18T22:06:13.240Z,5.15
2022-10-18T22:08:53.220Z,9.70
2022-10-18T22:11:23.187Z,8.40
2022-10-18T22:13:49.781Z,13.30
2022-10-18T22:16:17.133Z,6.43
2022-10-18T22:18:45.188Z,7.80
2022-10-18T22:21:13.688Z,6.72
2022-10-18T22:23:46.542Z,4.35
2022-10-18T22:26:15.128Z,9.93
2022-10-18T22:28:42.927Z,8.18
2022-10-18T22:31:21.511Z,5.15
2022-10-18T22:33:53.526Z,7.30
2022-10-18T22:36:20.413Z,8.63
2022-10-18T22:38:47.003Z,9.43
2022-10-18T22:41:13.788Z,5.53
2022-10-18T22:43:40.858Z,7.43
2022-10-18T22:46:10.942Z,14.95
2022-10-18T22:48:37.965Z,10.02
2022-10-18T22:51:05.519Z,8.23
2022-10-18T22:53:33.177Z,5.55
2022-10-18T22:56:00.438Z,5.70
2022-10-18T22:58:27.065Z,10.13
2022-10-18T23:01:01.593Z,13.23
2022-10-18T23:03:28.348Z,7.32
2022-10-18T23:05:55.203Z,7.35
2022-10-18T23:08:21.715Z,7.07
2022-10-18T23:10:52.609Z,9.73
2022-10-18T23:13:19.328Z,7.15
2022-10-18T23:15:45.927Z,10.10
2022-10-18T23:18:12.887Z,7.65
2022-10-18T23:20:39.542Z,9.38
2022-10-18T23:23:06.265Z,6.32
2022-10-18T23:25:36.547Z,11.43
2022-10-18T23:28:04.136Z,10.15
2022-10-18T23:30:30.814Z,6.95
2022-10-18T23:32:57.377Z,6.93
2022-10-18T23:35:23.991Z,4.82
2022-10-18T23:37:51.698Z,5.97
2022-10-18T23:40:18.318Z,7.55
2022-10-18T23:42:46.521Z,8.77
2022-10-18T23:45:13.051Z,7.35
2022-10-18T23:47:39.840Z,5.70
2022-10-18T23:50:06.692Z,6.93
2022-10-18T23:52:33.384Z,9.13
2022-10-18T23:54:59.945Z,9.43
2022-10-18T23:57:26.658Z,6.47
2022-10-18T23:59:53.575Z,7.28
